createdAt,value
2019-05-06T04:01:28.978Z,99.90
2019-05-06T04:03:57.921Z,99.90
2019-05-06T04:06:27.039Z,99.90
2019-05-06T04:08:56.817Z,99.90
2019-05-06T04:11:25.930Z,99.90
2019-05-06T04:13:55.806Z,99.90
2019-05-06T04:16:33.782Z,99.90
2019-05-06T04:19:12.840Z,99.90
2019-05-06T04:21:47.953Z,99.90
2019-05-06T04:24:24.282Z,99.90
2019-05-06T04:27:03.153Z,99.90
2019-05-06T04:29:35.512Z,99.90
2019-05-06T04:32:04.247Z,99.90
2019-05-06T04:34:33.851Z,99.90
2019-05-06T04:37:03.573Z,99.90
2019-05-06T04:39:33.162Z,99.90
2019-05-06T04:42:03.515Z,99.90
2019-05-06T04:44:33.195Z,99.90
2019-05-06T04:47:05.383Z,99.90
2019-05-06T04:49:35.452Z,99.90
2019-05-06T04:52:04.694Z,99.90
2019-05-06T04:54:33.851Z,99.90
2019-05-06T04:57:05.092Z,99.90
2019-05-06T04:59:34.570Z,99.90
2019-05-06T05:02:03.458Z,99.90
2019-05-06T05:04:36.608Z,99.90
2019-05-06T05:07:03.919Z,99.90
2019-05-06T05:09:32.757Z,99.90
2019-05-06T05:12:07.504Z,99.90
2019-05-06T05:14:44.988Z,99.90
2019-05-06T05:17:23.390Z,99.90
2019-05-06T05:19:52.950Z,99.90
2019-05-06T05:22:21.951Z,99.90
2019-05-06T05:24:52.113Z,99.90
2019-05-06T05:27:21.937Z,99.90
2019-05-06T05:29:52.342Z,99.90
2019-05-06T05:32:22.458Z,99.90
2019-05-06T05:34:52.292Z,99.90
2019-05-06T05:37:22.768Z,99.90
2019-05-06T05:39:52.084Z,99.90
2019-05-06T05:42:27.615Z,99.90
2019-05-06T05:44:56.520Z,99.90
2019-05-06T05:47:25.425Z,99.90
2019-05-06T05:50:08.618Z,99.90
2019-05-06T05:52:37.932Z,99.90
2019-05-06T05:55:07.090Z,99.90
2019-05-06T05:57:36.031Z,99.90
2019-05-06T06:00:05.639Z,99.90
2019-05-06T06:02:34.758Z,99.90
2019-05-06T06:05:04.000Z,99.90
2019-05-06T06:07:33.653Z,99.90
2019-05-06T06:10:24.925Z,99.90
2019-05-06T06:12:54.246Z,99.90
2019-05-06T06:15:39.799Z,99.90
2019-05-06T06:18:28.250Z,99.90
2019-05-06T06:21:17.006Z,99.90
2019-05-06T06:23:36.866Z,99.90
2019-05-06T06:26:05.700Z,99.90
2019-05-06T06:28:34.559Z,99.90
2019-05-06T06:31:12.093Z,99.90
2019-05-06T06:33:42.838Z,99.90
2019-05-06T06:36:23.120Z,99.90
2019-05-06T06:38:58.718Z,99.90
2019-05-06T06:41:27.536Z,99.90
2019-05-06T06:44:02.278Z,99.90
2019-05-06T06:46:32.338Z,99.90
2019-05-06T06:49:03.170Z,99.90
2019-05-06T06:51:33.079Z,99.90
2019-05-06T06:54:02.623Z,99.90
2019-05-06T06:57:05.133Z,99.90
2019-05-06T06:59:38.641Z,99.90
2019-05-06T07:02:17.688Z,99.90
2019-05-06T07:05:04.688Z,99.90
2019-05-06T07:07:43.373Z,99.90
2019-05-06T07:10:05.394Z,99.90
2019-05-06T07:12:34.158Z,99.90
2019-05-06T07:15:03.047Z,99.90
2019-05-06T07:17:32.785Z,99.90
2019-05-06T07:20:04.995Z,99.90
2019-05-06T07:22:37.175Z,99.90
2019-05-06T07:25:08.781Z,99.90
2019-05-06T07:27:37.674Z,99.90
2019-05-06T07:30:07.515Z,99.90
2019-05-06T07:32:36.327Z,99.90
2019-05-06T07:35:06.330Z,99.90
2019-05-06T07:37:35.331Z,99.90
2019-05-06T07:40:04.606Z,99.90
2019-05-06T07:42:39.988Z,99.90
2019-05-06T07:45:26.195Z,99.90
2019-05-06T07:47:57.901Z,99.90
2019-05-06T07:50:26.750Z,99.90
2019-05-06T07:53:07.901Z,99.90
2019-05-06T07:55:38.268Z,99.90
2019-05-06T07:58:07.734Z,99.90
2019-05-06T08:00:37.112Z,99.90
2019-05-06T08:03:06.382Z,99.90
2019-05-06T08:05:35.184Z,99.70
2019-05-06T08:08:04.356Z,99.90
2019-05-06T08:10:33.453Z,99.90
2019-05-06T08:13:02.959Z,99.90
2019-05-06T08:15:32.505Z,98.70
2019-05-06T08:18:03.485Z,99.90
2019-05-06T08:20:38.895Z,98.00
2019-05-06T08:23:28.465Z,97.50
2019-05-06T08:26:09.181Z,96.90
2019-05-06T08:28:40.323Z,96.90
2019-05-06T08:30:58.680Z,96.60
2019-05-06T08:33:27.789Z,95.30
2019-05-06T08:36:08.913Z,94.70
2019-05-06T08:38:27.203Z,93.00
2019-05-06T08:40:55.962Z,93.30
2019-05-06T08:43:24.828Z,93.60
2019-05-06T08:45:53.593Z,92.00
2019-05-06T08:48:22.414Z,93.00
2019-05-06T08:50:55.806Z,91.70
2019-05-06T08:53:44.043Z,91.60
2019-05-06T08:56:16.528Z,88.60
2019-05-06T08:58:46.205Z,90.20
2019-05-06T09:01:25.843Z,91.30
2019-05-06T09:04:08.722Z,93.30
2019-05-06T09:06:30.284Z,93.20
2019-05-06T09:08:56.955Z,90.60
2019-05-06T09:11:26.032Z,90.80
2019-05-06T09:13:54.962Z,90.10
2019-05-06T09:16:23.711Z,89.80
2019-05-06T09:18:53.336Z,91.60
2019-05-06T09:21:22.735Z,91.70
2019-05-06T09:23:53.153Z,91.70
2019-05-06T09:26:26.289Z,92.50
2019-05-06T09:29:02.312Z,93.00
2019-05-06T09:31:42.560Z,91.80
2019-05-06T09:34:23.362Z,91.20
2019-05-06T09:37:13.396Z,90.60
2019-05-06T09:39:45.954Z,89.70
2019-05-06T09:42:15.682Z,90.80
2019-05-06T09:44:45.508Z,91.20
2019-05-06T09:47:22.891Z,89.30
2019-05-06T09:49:53.081Z,89.80
2019-05-06T09:52:23.131Z,90.70
2019-05-06T09:54:58.656Z,90.70
2019-05-06T09:57:29.963Z,88.50
2019-05-06T09:59:58.832Z,90.80
2019-05-06T10:02:27.609Z,91.90
2019-05-06T10:04:56.453Z,91.40
2019-05-06T10:07:25.262Z,91.90
2019-05-06T10:09:54.013Z,91.40
2019-05-06T10:12:22.878Z,92.10
2019-05-06T10:14:53.271Z,92.40
2019-05-06T10:17:22.238Z,92.20
2019-05-06T10:19:51.410Z,94.00
2019-05-06T10:22:20.281Z,93.40
2019-05-06T10:24:49.218Z,92.50
2019-05-06T10:27:18.054Z,92.60
2019-05-06T10:29:58.860Z,92.20
2019-05-06T10:32:45.695Z,91.20
2019-05-06T10:35:14.945Z,92.00
2019-05-06T10:38:08.539Z,92.60
2019-05-06T10:40:57.337Z,91.20
2019-05-06T10:43:21.958Z,91.90
2019-05-06T10:45:52.020Z,91.60
2019-05-06T10:48:22.431Z,90.80
2019-05-06T10:50:54.360Z,90.80
2019-05-06T10:53:24.547Z,91.30
2019-05-06T10:55:55.103Z,91.00
2019-05-06T10:58:24.130Z,91.20
2019-05-06T11:01:03.613Z,87.30
2019-05-06T11:03:33.042Z,89.00
2019-05-06T11:06:02.606Z,90.70
2019-05-06T11:08:32.597Z,90.10
2019-05-06T11:11:14.787Z,89.90
2019-05-06T11:13:32.311Z,90.00
2019-05-06T11:16:03.302Z,88.40
2019-05-06T11:18:33.498Z,87.20
2019-05-06T11:21:03.483Z,84.60
2019-05-06T11:23:33.767Z,85.30
2019-05-06T11:26:03.197Z,84.60
2019-05-06T11:28:52.069Z,84.90
2019-05-06T11:31:33.191Z,90.00
2019-05-06T11:34:12.708Z,85.90
2019-05-06T11:36:53.327Z,89.50
2019-05-06T11:39:23.337Z,90.90
2019-05-06T11:42:06.296Z,91.00
2019-05-06T11:44:24.247Z,83.90
2019-05-06T11:46:53.171Z,82.00
2019-05-06T11:49:23.337Z,81.90
2019-05-06T11:51:52.461Z,77.20
2019-05-06T11:54:24.466Z,75.00
2019-05-06T11:56:56.260Z,79.50
